Terminal Aerodrome Forecast
Issued by NWS Nashville, TN

Current Version | Previous Version | Text Only | Print | Product List | Glossary On
Versions: 1 2 3 4 5 6 7 8 9 10 11 12 13 14 15 16 17 18
000
FTUS44 KOHX 292127 AAA
TAFBNA
TAF AMD
KBNA 292127Z 2921/3018 26006KT P6SM SCT050 SCT070
     FM300000 35004KT P6SM SCT120
     FM300800 01002KT 4SM BR FEW120
     FM301300 01009KT P6SM SKC=

USA.gov is the U.S. government's official web portal to all federal, state and local government web resources and services.